createdAt,value
2018-10-02T00:00:52.047Z,7.10
2018-10-02T00:03:21.329Z,7.10
2018-10-02T00:05:50.594Z,7.10
2018-10-02T00:08:19.834Z,7.10
2018-10-02T00:10:54.179Z,7.00
2018-10-02T00:13:28.650Z,7.00
2018-10-02T00:15:57.830Z,7.00
2018-10-02T00:18:27.352Z,6.90
2018-10-02T00:20:56.552Z,6.90
2018-10-02T00:23:25.879Z,6.90
2018-10-02T00:25:55.102Z,6.90
2018-10-02T00:28:24.343Z,6.90
2018-10-02T00:30:53.614Z,6.80
2018-10-02T00:33:23.138Z,6.80
2018-10-02T00:35:52.366Z,6.90
2018-10-02T00:38:21.684Z,6.90
2018-10-02T00:40:50.981Z,6.90
2018-10-02T00:43:20.295Z,6.90
2018-10-02T00:45:49.579Z,6.80
2018-10-02T00:48:19.376Z,6.90
2018-10-02T00:50:48.658Z,6.90
2018-10-02T00:53:17.941Z,6.90
2018-10-02T00:55:47.189Z,6.90
2018-10-02T00:58:16.385Z,6.80
2018-10-02T01:00:45.639Z,6.90
2018-10-02T01:03:14.933Z,6.90
2018-10-02T01:05:44.225Z,6.90
2018-10-02T01:08:13.415Z,6.90
2018-10-02T01:10:42.760Z,6.90
2018-10-02T01:13:12.017Z,6.80
2018-10-02T01:15:41.220Z,6.80
2018-10-02T01:18:10.483Z,6.70
2018-10-02T01:20:39.643Z,6.80
2018-10-02T01:23:08.838Z,6.70
2018-10-02T01:25:38.087Z,6.80
2018-10-02T01:28:07.662Z,6.70
2018-10-02T01:30:36.922Z,6.70
2018-10-02T01:33:06.345Z,6.70
2018-10-02T01:35:35.627Z,6.70
2018-10-02T01:38:04.989Z,6.70
2018-10-02T01:40:34.271Z,6.70
2018-10-02T01:43:03.499Z,6.70
2018-10-02T01:45:32.692Z,6.80
2018-10-02T01:48:01.854Z,6.70
2018-10-02T01:50:31.079Z,6.70
2018-10-02T01:53:00.356Z,6.70
2018-10-02T01:55:29.657Z,6.70
2018-10-02T01:57:58.899Z,6.70
2018-10-02T02:00:28.167Z,6.80
2018-10-02T02:02:57.396Z,6.90
2018-10-02T02:05:26.740Z,6.80
2018-10-02T02:07:56.011Z,6.80
2018-10-02T02:10:25.207Z,6.80
2018-10-02T02:12:54.459Z,6.70
2018-10-02T02:15:23.705Z,6.70
2018-10-02T02:17:52.900Z,6.70
2018-10-02T02:20:22.142Z,6.60
2018-10-02T02:22:51.354Z,6.60
2018-10-02T02:25:20.753Z,6.60
2018-10-02T02:27:50.546Z,6.60
2018-10-02T02:30:19.764Z,6.60
2018-10-02T02:32:49.830Z,6.50
2018-10-02T02:35:19.235Z,6.30
2018-10-02T02:37:48.592Z,6.20
2018-10-02T02:40:17.857Z,6.10
2018-10-02T02:42:47.176Z,6.10
2018-10-02T02:45:16.427Z,6.10
2018-10-02T02:47:51.517Z,6.00
2018-10-02T02:50:25.809Z,6.00
2018-10-02T02:53:15.709Z,6.10
2018-10-02T02:55:45.379Z,6.10
2018-10-02T02:58:14.699Z,5.90
2018-10-02T03:00:43.891Z,5.90
2018-10-02T03:03:13.153Z,5.80
2018-10-02T03:05:42.415Z,5.90
2018-10-02T03:08:11.755Z,5.80
2018-10-02T03:10:40.959Z,5.80
2018-10-02T03:13:10.210Z,5.80
2018-10-02T03:15:39.519Z,5.80
2018-10-02T03:18:08.783Z,5.80
2018-10-02T03:20:38.183Z,5.80
2018-10-02T03:23:07.516Z,5.80
2018-10-02T03:25:36.882Z,5.80
2018-10-02T03:28:06.225Z,5.80
2018-10-02T03:30:35.453Z,5.80
2018-10-02T03:33:04.658Z,5.80
2018-10-02T03:35:33.907Z,5.90
2018-10-02T03:38:03.152Z,5.90
2018-10-02T03:40:32.468Z,5.90
2018-10-02T03:43:01.773Z,5.90
2018-10-02T03:45:31.763Z,5.90
2018-10-02T03:48:01.031Z,6.00
2018-10-02T03:50:30.290Z,6.00
2018-10-02T03:52:59.499Z,6.00
2018-10-02T03:55:28.767Z,6.00
2018-10-02T03:57:57.994Z,6.00
2018-10-02T04:00:27.720Z,6.10
2018-10-02T04:02:56.982Z,6.00
2018-10-02T04:05:26.227Z,6.00
2018-10-02T04:07:55.500Z,6.10
2018-10-02T04:10:24.751Z,6.00
2018-10-02T04:12:54.027Z,6.10
2018-10-02T04:15:23.327Z,6.10
2018-10-02T04:17:52.603Z,6.00
2018-10-02T04:20:21.864Z,6.00
2018-10-02T04:22:51.183Z,6.00
2018-10-02T04:25:20.456Z,6.00
2018-10-02T04:27:54.302Z,6.00
2018-10-02T04:30:23.862Z,6.00
2018-10-02T04:32:53.124Z,5.90
2018-10-02T04:35:22.426Z,6.00
2018-10-02T04:37:51.739Z,5.90
2018-10-02T04:40:21.120Z,6.00
2018-10-02T04:42:50.356Z,6.00
2018-10-02T04:45:19.855Z,5.90
2018-10-02T04:47:52.729Z,6.00
2018-10-02T04:50:23.695Z,6.00
2018-10-02T04:52:53.041Z,6.00
2018-10-02T04:55:33.696Z,6.00
2018-10-02T05:06:24.284Z,5.90
2018-10-02T05:11:49.532Z,5.80
2018-10-02T05:14:19.569Z,5.80
2018-10-02T05:16:48.882Z,5.80
2018-10-02T05:19:20.787Z,5.70
2018-10-02T05:21:50.103Z,5.70
2018-10-02T05:24:19.404Z,5.60
2018-10-02T05:26:48.655Z,5.60
2018-10-02T05:29:17.961Z,5.60
2018-10-02T05:31:47.301Z,5.50
2018-10-02T05:34:16.622Z,5.50
2018-10-02T05:36:45.841Z,5.50
2018-10-02T05:39:15.764Z,5.40
2018-10-02T05:41:45.057Z,5.40
2018-10-02T05:44:14.403Z,5.30
2018-10-02T05:46:43.691Z,5.30
2018-10-02T05:49:12.987Z,5.40
2018-10-02T05:51:42.241Z,5.50
2018-10-02T05:54:11.455Z,5.50
2018-10-02T05:56:40.800Z,5.60
2018-10-02T05:59:10.143Z,5.70
2018-10-02T06:01:39.509Z,5.70
2018-10-02T06:04:08.728Z,5.70
2018-10-02T06:06:38.023Z,5.70
2018-10-02T06:09:10.204Z,5.60
2018-10-02T06:11:39.532Z,5.50
2018-10-02T06:14:09.457Z,5.50
2018-10-02T06:16:38.871Z,5.40
2018-10-02T06:19:08.147Z,5.40
2018-10-02T06:21:37.412Z,5.40
2018-10-02T06:24:06.717Z,5.50
2018-10-02T06:26:35.913Z,5.50
2018-10-02T06:29:05.215Z,5.60
2018-10-02T06:31:34.443Z,5.60
2018-10-02T06:34:03.718Z,5.70
2018-10-02T06:36:33.502Z,5.80
2018-10-02T06:39:03.033Z,5.90
2018-10-02T06:41:32.250Z,6.10
2018-10-02T06:44:01.544Z,6.20
2018-10-02T06:46:30.772Z,6.20
2018-10-02T06:49:00.152Z,6.20
2018-10-02T06:51:29.586Z,6.30
2018-10-02T06:53:58.747Z,6.30
2018-10-02T06:56:28.014Z,6.30
2018-10-02T06:58:57.198Z,6.40
2018-10-02T07:01:26.813Z,6.70
2018-10-02T07:03:56.045Z,7.10
2018-10-02T07:06:25.297Z,7.40
2018-10-02T07:08:54.625Z,7.60
2018-10-02T07:11:23.995Z,7.60
2018-10-02T07:13:53.327Z,7.50
2018-10-02T07:16:22.554Z,7.30
2018-10-02T07:18:51.876Z,7.40
2018-10-02T07:21:21.116Z,7.60
2018-10-02T07:23:50.768Z,7.90
2018-10-02T07:26:20.059Z,8.30
2018-10-02T07:28:49.407Z,8.40
2018-10-02T07:31:18.625Z,8.30
2018-10-02T07:33:48.398Z,8.10
2018-10-02T07:36:17.671Z,8.00
2018-10-02T07:38:46.891Z,7.90
2018-10-02T07:41:16.219Z,7.80
2018-10-02T07:43:45.459Z,7.60
2018-10-02T07:46:14.734Z,7.60
2018-10-02T07:48:43.971Z,7.50
2018-10-02T07:51:13.193Z,7.40
2018-10-02T07:53:42.591Z,7.40
2018-10-02T07:56:11.819Z,7.30
2018-10-02T07:58:41.236Z,7.20
2018-10-02T08:01:10.572Z,7.20
2018-10-02T08:03:39.876Z,7.20
2018-10-02T08:06:09.747Z,7.40
2018-10-02T08:08:39.275Z,7.80
2018-10-02T08:11:08.765Z,8.20
2018-10-02T08:13:38.031Z,8.80
2018-10-02T08:16:07.295Z,9.10
2018-10-02T08:18:36.511Z,9.20
2018-10-02T08:21:05.798Z,9.40
2018-10-02T08:23:35.047Z,9.70
2018-10-02T08:26:04.368Z,10.00
2018-10-02T08:28:33.583Z,10.00
2018-10-02T08:31:02.962Z,9.80
2018-10-02T08:33:32.406Z,9.50
2018-10-02T08:36:01.695Z,9.20
2018-10-02T08:38:30.896Z,8.80
2018-10-02T08:41:00.597Z,8.60
2018-10-02T08:43:29.953Z,8.40
2018-10-02T08:45:59.376Z,8.70
2018-10-02T08:48:28.844Z,9.20
2018-10-02T08:50:58.308Z,10.00
2018-10-02T08:53:27.637Z,10.40
2018-10-02T08:55:56.914Z,10.70
2018-10-02T08:58:26.277Z,10.90
2018-10-02T09:00:55.995Z,10.90
2018-10-02T09:03:25.555Z,10.90
2018-10-02T09:05:54.931Z,10.80
2018-10-02T09:08:24.172Z,10.70
2018-10-02T09:10:53.523Z,10.80
2018-10-02T09:13:22.741Z,10.80
2018-10-02T09:15:52.448Z,10.70
2018-10-02T09:18:21.658Z,10.50
2018-10-02T09:20:51.345Z,10.00
2018-10-02T09:23:20.551Z,9.70
2018-10-02T09:25:49.966Z,9.40
2018-10-02T09:28:19.235Z,9.40
2018-10-02T09:30:53.780Z,9.50
2018-10-02T09:33:28.013Z,9.70
2018-10-02T09:36:02.292Z,9.90
2018-10-02T09:38:36.758Z,10.30
2018-10-02T09:41:11.184Z,10.50
2018-10-02T09:43:45.683Z,10.60
2018-10-02T09:46:14.866Z,10.60
2018-10-02T09:48:44.543Z,10.50
2018-10-02T09:51:13.764Z,10.30
2018-10-02T09:53:43.369Z,10.10
2018-10-02T09:56:12.603Z,10.00
2018-10-02T09:58:41.938Z,10.10
2018-10-02T10:01:16.379Z,10.10
2018-10-02T10:03:45.656Z,10.10
2018-10-02T10:06:14.971Z,10.10
2018-10-02T10:08:44.182Z,10.10
2018-10-02T10:11:13.771Z,9.90
2018-10-02T10:13:42.940Z,9.60
2018-10-02T10:16:14.778Z,9.60
2018-10-02T10:18:57.312Z,9.70
2018-10-02T10:21:29.048Z,10.00
2018-10-02T10:23:58.881Z,10.30
2018-10-02T10:26:28.188Z,10.70
2018-10-02T10:28:57.437Z,11.00
2018-10-02T10:31:26.714Z,11.00
2018-10-02T10:33:56.131Z,11.10
2018-10-02T10:36:25.600Z,11.00
2018-10-02T10:38:54.846Z,10.90
2018-10-02T10:41:24.021Z,10.80
2018-10-02T10:43:53.292Z,10.60
2018-10-02T10:46:22.478Z,10.60
2018-10-02T10:48:51.728Z,10.60
2018-10-02T10:51:21.912Z,10.90
2018-10-02T10:53:51.146Z,11.10
2018-10-02T10:56:20.464Z,11.30
2018-10-02T10:58:49.666Z,11.40
2018-10-02T11:01:19.002Z,11.60
2018-10-02T11:03:48.258Z,11.90
2018-10-02T11:06:17.560Z,11.90
2018-10-02T11:08:46.781Z,12.00
2018-10-02T11:11:15.958Z,11.80
2018-10-02T11:13:45.460Z,11.70
2018-10-02T11:16:14.628Z,11.50
2018-10-02T11:18:43.835Z,11.50
2018-10-02T11:21:13.467Z,11.40
2018-10-02T11:23:42.860Z,11.40
2018-10-02T11:26:12.132Z,11.40
2018-10-02T11:28:41.475Z,11.30
2018-10-02T11:31:10.748Z,11.10
2018-10-02T11:33:40.336Z,10.90
2018-10-02T11:36:09.765Z,11.00
2018-10-02T11:38:38.988Z,10.90
2018-10-02T11:41:08.298Z,10.90
2018-10-02T11:43:37.703Z,10.80
2018-10-02T11:46:07.152Z,10.80
2018-10-02T11:48:36.421Z,10.80
2018-10-02T11:51:05.944Z,11.10
2018-10-02T11:53:35.199Z,11.30
2018-10-02T11:56:04.521Z,11.30
2018-10-02T11:58:33.874Z,11.20
2018-10-02T12:01:03.212Z,11.00
2018-10-02T12:03:32.573Z,11.10
2018-10-02T12:06:02.025Z,11.30
2018-10-02T12:08:31.472Z,11.40
2018-10-02T12:11:00.664Z,11.40
2018-10-02T12:13:30.040Z,11.40
2018-10-02T12:15:59.175Z,11.40
2018-10-02T12:18:28.413Z,11.30
2018-10-02T12:20:58.847Z,11.20
2018-10-02T12:23:28.180Z,11.30
2018-10-02T12:25:57.438Z,11.30
2018-10-02T12:28:26.707Z,11.20
2018-10-02T12:30:56.063Z,11.30
2018-10-02T12:33:25.239Z,11.30
2018-10-02T12:35:54.833Z,11.30
2018-10-02T12:38:24.171Z,11.30
2018-10-02T12:40:53.459Z,11.30
2018-10-02T12:43:22.796Z,11.30
2018-10-02T12:45:52.040Z,11.30
2018-10-02T12:48:21.415Z,11.40
2018-10-02T12:50:50.791Z,11.50
2018-10-02T12:53:20.156Z,11.60
2018-10-02T12:55:49.375Z,11.80
2018-10-02T12:58:18.650Z,12.00
2018-10-02T13:00:47.997Z,12.00
2018-10-02T13:03:17.291Z,12.00
2018-10-02T13:05:46.555Z,11.90
2018-10-02T13:08:16.130Z,11.90
2018-10-02T13:10:45.441Z,11.90
2018-10-02T13:13:15.149Z,11.80
2018-10-02T13:15:44.411Z,11.70
2018-10-02T13:18:13.691Z,11.60
2018-10-02T13:20:43.687Z,11.50
2018-10-02T13:23:13.131Z,11.50
2018-10-02T13:25:42.538Z,11.40
2018-10-02T13:28:11.864Z,11.50
2018-10-02T13:30:41.231Z,11.40
2018-10-02T13:33:10.732Z,11.50
2018-10-02T13:35:40.005Z,11.50
2018-10-02T13:38:09.658Z,11.50
2018-10-02T13:40:38.936Z,11.60
2018-10-02T13:43:08.384Z,11.60
2018-10-02T13:45:37.700Z,11.60
2018-10-02T13:48:07.194Z,11.60
2018-10-02T13:50:36.544Z,11.50
2018-10-02T13:53:11.931Z,11.50
2018-10-02T13:55:41.843Z,11.50
2018-10-02T13:58:11.199Z,11.50
2018-10-02T14:00:40.578Z,11.50
2018-10-02T14:03:09.887Z,11.40
2018-10-02T14:05:39.723Z,11.40
2018-10-02T14:08:09.059Z,11.40
2018-10-02T14:10:38.343Z,11.50
2018-10-02T14:13:07.821Z,11.50
2018-10-02T14:15:37.229Z,11.40
2018-10-02T14:18:06.783Z,11.50
2018-10-02T14:20:36.127Z,11.40
2018-10-02T14:23:05.536Z,11.40
2018-10-02T14:25:35.112Z,11.40
2018-10-02T14:28:04.612Z,11.40
2018-10-02T14:30:34.649Z,11.50
2018-10-02T14:33:04.265Z,11.50
2018-10-02T14:35:35.581Z,11.50
2018-10-02T14:38:05.503Z,11.60
2018-10-02T14:40:38.181Z,11.50
2018-10-02T14:43:08.608Z,11.50
2018-10-02T14:45:38.329Z,11.40
2018-10-02T14:48:07.711Z,11.40
2018-10-02T14:50:36.991Z,11.30
2018-10-02T14:53:06.512Z,11.30
2018-10-02T14:55:35.805Z,11.30
2018-10-02T14:58:05.044Z,11.20
2018-10-02T15:00:34.911Z,11.30
2018-10-02T15:03:04.592Z,11.20
2018-10-02T15:05:33.894Z,11.30
2018-10-02T15:08:03.195Z,11.30
2018-10-02T15:10:32.559Z,11.30
2018-10-02T15:13:01.880Z,11.30
2018-10-02T15:15:31.396Z,11.30
2018-10-02T15:18:00.653Z,11.20
2018-10-02T15:20:29.873Z,11.20
2018-10-02T15:22:59.157Z,11.20
2018-10-02T15:25:28.502Z,11.20
2018-10-02T15:27:57.835Z,11.20
2018-10-02T15:30:27.268Z,11.20
2018-10-02T15:32:56.579Z,11.20
2018-10-02T15:35:25.896Z,11.10
2018-10-02T15:37:55.295Z,11.00
2018-10-02T15:40:24.472Z,11.00
2018-10-02T15:42:53.804Z,11.00
2018-10-02T15:45:23.167Z,11.00
2018-10-02T15:47:52.982Z,11.00
2018-10-02T15:50:22.244Z,11.00
2018-10-02T15:52:51.464Z,11.00
2018-10-02T15:55:21.308Z,11.00
2018-10-02T15:57:50.866Z,11.00
2018-10-02T16:00:20.224Z,10.90
2018-10-02T16:02:49.515Z,10.90
2018-10-02T16:05:18.799Z,10.90
2018-10-02T16:07:48.060Z,11.00
2018-10-02T16:10:17.379Z,11.00
2018-10-02T16:12:46.622Z,10.90
2018-10-02T16:15:15.919Z,10.90
2018-10-02T16:17:45.339Z,10.90
2018-10-02T16:20:14.641Z,10.90
2018-10-02T16:22:43.905Z,10.90
2018-10-02T16:25:13.169Z,10.90
2018-10-02T16:27:42.605Z,10.80
2018-10-02T16:30:11.899Z,10.90
2018-10-02T16:32:41.216Z,10.80
2018-10-02T16:35:10.591Z,10.80
2018-10-02T16:37:39.829Z,10.80
2018-10-02T16:40:09.186Z,10.80
2018-10-02T16:42:38.468Z,10.80
2018-10-02T16:45:07.933Z,10.90
2018-10-02T16:47:37.184Z,10.90
2018-10-02T16:50:06.915Z,10.80
2018-10-02T16:52:36.330Z,10.80
2018-10-02T16:55:05.899Z,10.80
2018-10-02T16:57:35.230Z,10.70
2018-10-02T17:00:05.060Z,10.80
2018-10-02T17:02:34.322Z,10.70
2018-10-02T17:05:03.558Z,10.80
2018-10-02T17:07:32.857Z,10.80
2018-10-02T17:10:02.115Z,10.80
2018-10-02T17:12:31.379Z,10.70
2018-10-02T17:15:00.584Z,10.80
2018-10-02T17:17:29.889Z,10.80
2018-10-02T17:19:59.262Z,10.80
2018-10-02T17:22:29.458Z,10.80
2018-10-02T17:24:59.724Z,10.80
2018-10-02T17:27:29.124Z,10.80
2018-10-02T17:30:00.704Z,10.80
2018-10-02T17:32:30.090Z,10.80
2018-10-02T17:35:00.521Z,10.70
2018-10-02T17:37:30.364Z,10.70
2018-10-02T17:39:59.652Z,10.70
2018-10-02T17:42:29.139Z,10.80
2018-10-02T17:44:59.433Z,10.80
2018-10-02T17:47:29.684Z,10.80
2018-10-02T17:50:00.630Z,10.80
2018-10-02T17:52:30.584Z,10.80
2018-10-02T17:55:02.961Z,10.80
2018-10-02T17:57:35.393Z,10.80
2018-10-02T18:00:05.063Z,10.80
2018-10-02T18:02:34.572Z,10.80
2018-10-02T18:05:04.581Z,10.80
2018-10-02T18:07:34.259Z,10.80
2018-10-02T18:10:04.142Z,10.70
2018-10-02T18:12:33.660Z,10.70
2018-10-02T18:15:03.315Z,10.70
2018-10-02T18:17:33.237Z,10.70
2018-10-02T18:20:03.175Z,10.70
2018-10-02T18:22:33.011Z,10.70
2018-10-02T18:25:02.768Z,10.80
2018-10-02T18:27:32.523Z,10.80
2018-10-02T18:30:02.231Z,10.80
2018-10-02T18:32:32.779Z,10.80
2018-10-02T18:35:03.637Z,10.80
2018-10-02T18:37:33.301Z,10.70
2018-10-02T18:40:03.514Z,10.70
2018-10-02T18:42:34.417Z,10.80
2018-10-02T18:45:04.808Z,10.70
2018-10-02T18:47:36.043Z,10.60
2018-10-02T18:50:09.161Z,10.70
2018-10-02T18:52:41.059Z,10.70
2018-10-02T18:55:13.264Z,10.70
2018-10-02T18:57:45.000Z,10.70
2018-10-02T19:00:17.321Z,10.70
2018-10-02T19:02:49.667Z,10.60
2018-10-02T19:05:22.634Z,10.70
2018-10-02T19:07:53.413Z,10.60
2018-10-02T19:10:24.544Z,10.60
2018-10-02T19:12:57.137Z,10.60
2018-10-02T19:15:31.161Z,10.60
2018-10-02T19:18:03.269Z,10.60
2018-10-02T19:20:38.294Z,10.60
2018-10-02T19:23:08.048Z,10.60
2018-10-02T19:25:42.962Z,10.50
2018-10-02T19:28:12.581Z,10.50
2018-10-02T19:30:47.773Z,10.50
2018-10-02T19:33:17.434Z,10.50
2018-10-02T19:35:47.126Z,10.40
2018-10-02T19:38:21.468Z,10.40
2018-10-02T19:40:51.239Z,10.40
2018-10-02T19:43:21.072Z,10.40
2018-10-02T19:45:56.303Z,10.40
2018-10-02T19:48:25.954Z,10.40
2018-10-02T19:50:59.756Z,10.40
2018-10-02T19:53:29.390Z,10.30
2018-10-02T19:55:59.004Z,10.30
2018-10-02T19:58:28.825Z,10.30
2018-10-02T20:00:58.661Z,10.30
2018-10-02T20:03:28.374Z,10.30
2018-10-02T20:05:58.124Z,10.30
2018-10-02T20:08:27.940Z,10.30
2018-10-02T20:10:57.514Z,10.30
2018-10-02T20:13:27.220Z,10.30
2018-10-02T20:15:57.111Z,10.20
2018-10-02T20:18:26.738Z,10.20
2018-10-02T20:20:56.041Z,10.10
2018-10-02T20:23:25.335Z,10.20
2018-10-02T20:25:55.044Z,10.20
2018-10-02T20:28:24.353Z,10.10
2018-10-02T20:30:53.632Z,10.10
2018-10-02T20:33:22.849Z,10.10
2018-10-02T20:35:52.116Z,10.10
2018-10-02T20:38:21.379Z,10.00
2018-10-02T20:40:51.131Z,10.00
2018-10-02T20:43:20.471Z,10.00
2018-10-02T20:45:49.841Z,10.00
2018-10-02T20:48:19.117Z,10.00
2018-10-02T20:50:48.410Z,10.00
2018-10-02T20:53:17.846Z,10.00
2018-10-02T20:55:47.707Z,10.00
2018-10-02T20:58:17.440Z,10.00
2018-10-02T21:00:47.319Z,10.00
2018-10-02T21:03:17.068Z,10.00
2018-10-02T21:05:47.500Z,10.00
2018-10-02T21:08:17.231Z,10.00
2018-10-02T21:10:47.203Z,10.00
2018-10-02T21:13:16.998Z,10.00
2018-10-02T21:15:46.796Z,10.10
2018-10-02T21:18:16.662Z,10.10
2018-10-02T21:20:46.520Z,10.10
2018-10-02T21:23:16.192Z,10.10
2018-10-02T21:25:46.041Z,10.10
2018-10-02T21:28:15.716Z,10.20
2018-10-02T21:30:45.204Z,10.20
2018-10-02T21:33:14.855Z,10.20
2018-10-02T21:35:44.944Z,10.30
2018-10-02T21:38:14.783Z,10.30
2018-10-02T21:40:44.897Z,10.20
2018-10-02T21:43:16.485Z,10.20
2018-10-02T21:45:47.410Z,10.30
2018-10-02T21:48:18.630Z,10.20
2018-10-02T21:50:49.144Z,10.20
2018-10-02T21:53:20.499Z,10.10
2018-10-02T21:55:53.583Z,10.10
2018-10-02T21:58:24.760Z,10.10
2018-10-02T22:01:01.115Z,10.10
2018-10-02T22:03:32.157Z,10.10
2018-10-02T22:06:02.056Z,10.10
2018-10-02T22:08:32.975Z,10.00
2018-10-02T22:11:03.497Z,10.00
2018-10-02T22:13:33.200Z,10.00
2018-10-02T22:16:04.163Z,9.90
2018-10-02T22:18:34.244Z,9.90
2018-10-02T22:21:04.848Z,9.90
2018-10-02T22:23:35.180Z,9.90
2018-10-02T22:26:05.563Z,9.90
2018-10-02T22:28:41.573Z,10.00
2018-10-02T22:31:10.954Z,9.90
2018-10-02T22:33:40.426Z,9.90
2018-10-02T22:36:09.814Z,9.90
2018-10-02T22:38:45.894Z,9.90
2018-10-02T22:41:15.243Z,9.90
2018-10-02T22:43:44.677Z,9.90
2018-10-02T22:46:14.448Z,9.90
2018-10-02T22:48:43.768Z,9.80
2018-10-02T22:51:13.509Z,9.90
2018-10-02T22:53:42.875Z,9.80
2018-10-02T22:56:12.311Z,9.90
2018-10-02T22:58:41.674Z,9.80
2018-10-02T23:01:11.441Z,9.80
2018-10-02T23:03:40.838Z,9.80
2018-10-02T23:06:10.335Z,9.80
2018-10-02T23:08:39.654Z,9.80
2018-10-02T23:11:08.973Z,9.80
2018-10-02T23:13:38.409Z,9.80
2018-10-02T23:16:08.007Z,9.80
2018-10-02T23:18:38.247Z,9.80
2018-10-02T23:21:07.783Z,9.80
2018-10-02T23:23:37.094Z,9.80
2018-10-02T23:26:06.489Z,9.80
2018-10-02T23:28:35.848Z,9.80
2018-10-02T23:31:05.166Z,9.90
2018-10-02T23:33:34.496Z,9.90
2018-10-02T23:36:03.919Z,9.90
2018-10-02T23:38:33.351Z,9.90
2018-10-02T23:41:02.744Z,9.90
2018-10-02T23:43:32.209Z,10.00
2018-10-02T23:46:01.496Z,10.00
2018-10-02T23:48:30.884Z,10.00
2018-10-02T23:51:00.247Z,10.00
2018-10-02T23:53:29.628Z,9.90
2018-10-02T23:55:59.118Z,9.90
2018-10-02T23:58:28.397Z,10.00
